Wetterdaten: Woche 02.03.09 - 08.03.09 (KW10)
Datum Zeit Temp. Innen Temp. Aussen Feuchte Inne Feuchte Auss Luftdruck Regen ab 0,1 Wind
02.03.2009 00:00 17,9 C 9,3 C 51 % 85 % 1008,4 hPa 0,0 l/m 0,0 km/h (0 Bft)
02.03.2009 01:00 17,8 C 9,3 C 51 % 85 % 1009,3 hPa 0,0 l/m 0,0 km/h (0 Bft)
02.03.2009 02:00 17,7 C 9,4 C 51 % 85 % 1009,4 hPa 0,0 l/m 0,4 km/h (0 Bft)
02.03.2009 03:00 17,7 C 9,0 C 51 % 85 % 1009,4 hPa 0,0 l/m 0,4 km/h (0 Bft)
02.03.2009 04:00 17,6 C 8,5 C 51 % 85 % 1009,4 hPa 0,5 l/m 0,4 km/h (0 Bft)
02.03.2009 05:00 17,6 C 7,9 C 51 % 85 % 1010,3 hPa 0,0 l/m 2,5 km/h (1 Bft)
02.03.2009 06:00 17,6 C 7,3 C 51 % 86 % 1010,4 hPa 0,0 l/m 0,6 km/h (0 Bft)
02.03.2009 07:00 17,6 C 7,0 C 50 % 87 % 1011,0 hPa 0,0 l/m 0,6 km/h (0 Bft)
02.03.2009 08:00 17,6 C 6,9 C 50 % 87 % 1012,1 hPa 0,0 l/m 2,2 km/h (1 Bft)
02.03.2009 09:00 17,6 C 7,0 C 50 % 85 % 1012,6 hPa 0,0 l/m 1,3 km/h (1 Bft)
02.03.2009 10:00 17,6 C 7,1 C 49 % 83 % 1013,4 hPa 0,0 l/m 1,2 km/h (1 Bft)
02.03.2009 11:00 17,5 C 8,1 C 49 % 80 % 1014,0 hPa 0,0 l/m 1,5 km/h (1 Bft)
02.03.2009 12:00 17,4 C 8,4 C 49 % 77 % 1014,4 hPa 0,0 l/m 1,3 km/h (1 Bft)
02.03.2009 13:00 17,5 C 8,1 C 50 % 73 % 1014,4 hPa 0,0 l/m 1,0 km/h (0 Bft)
02.03.2009 14:00 17,4 C 7,9 C 47 % 72 % 1014,4 hPa 0,0 l/m 1,3 km/h (1 Bft)
02.03.2009 15:00 17,3 C 8,1 C 47 % 69 % 1014,4 hPa 0,0 l/m 1,6 km/h (1 Bft)
02.03.2009 16:00 17,3 C 8,2 C 47 % 68 % 1014,9 hPa 0,0 l/m 0,1 km/h (0 Bft)
02.03.2009 17:00 17,3 C 8,0 C 46 % 69 % 1015,4 hPa 0,0 l/m 0,0 km/h (0 Bft)
02.03.2009 18:00 17,4 C 7,4 C 46 % 72 % 1015,4 hPa 0,0 l/m 0,0 km/h (0 Bft)
02.03.2009 19:00 17,5 C 6,6 C 46 % 74 % 1015,9 hPa 0,0 l/m 0,0 km/h (0 Bft)
02.03.2009 20:00 17,4 C 6,1 C 46 % 75 % 1016,5 hPa 0,0 l/m 0,0 km/h (0 Bft)
02.03.2009 21:00 17,4 C 5,0 C 46 % 77 % 1016,5 hPa 0,0 l/m 0,0 km/h (0 Bft)
02.03.2009 22:00 17,4 C 3,7 C 45 % 79 % 1016,5 hPa 0,0 l/m 0,0 km/h (0 Bft)
02.03.2009 23:00 17,3 C 2,5 C 44 % 80 % 1016,5 hPa 0,0 l/m 0,0 km/h (0 Bft)
03.03.2009 00:00 17,2 C 1,5 C 44 % 82 % 1016,5 hPa 0,0 l/m 0,0 km/h (0 Bft)
03.03.2009 01:00 17,2 C 1,0 C 44 % 83 % 1017,2 hPa 0,0 l/m 0,0 km/h (0 Bft)
03.03.2009 02:00 17,0 C 0,8 C 43 % 84 % 1016,8 hPa 0,0 l/m 0,0 km/h (0 Bft)
03.03.2009 03:00 17,0 C 0,6 C 43 % 85 % 1016,6 hPa 0,0 l/m 0,0 km/h (0 Bft)
03.03.2009 04:00 16,9 C 0,5 C 43 % 85 % 1016,3 hPa 0,0 l/m 0,0 km/h (0 Bft)
03.03.2009 05:00 16,8 C 0,6 C 43 % 86 % 1015,6 hPa 0,0 l/m 0,0 km/h (0 Bft)
03.03.2009 06:00 16,8 C 0,9 C 43 % 86 % 1015,5 hPa 0,0 l/m 0,0 km/h (0 Bft)
03.03.2009 07:00 16,7 C 0,6 C 43 % 87 % 1015,6 hPa 0,0 l/m 0,0 km/h (0 Bft)
03.03.2009 08:00 16,6 C 1,2 C 43 % 87 % 1015,0 hPa 0,0 l/m 0,0 km/h (0 Bft)
03.03.2009 09:00 16,3 C 3,0 C 43 % 88 % 1014,5 hPa 0,0 l/m 0,2 km/h (0 Bft)
03.03.2009 10:00 16,0 C 5,6 C 44 % 83 % 1013,9 hPa 0,0 l/m 2,8 km/h (1 Bft)
03.03.2009 11:00 16,0 C 8,0 C 43 % 74 % 1013,4 hPa 0,0 l/m 2,5 km/h (1 Bft)
03.03.2009 12:00 16,0 C 9,5 C 44 % 67 % 1012,6 hPa 0,0 l/m 3,8 km/h (1 Bft)
03.03.2009 13:00 16,5 C 10,6 C 44 % 62 % 1011,6 hPa 0,0 l/m 4,1 km/h (1 Bft)
03.03.2009 14:00 16,8 C 11,4 C 44 % 58 % 1010,6 hPa 0,0 l/m 3,5 km/h (1 Bft)
03.03.2009 15:00 17,2 C 11,3 C 43 % 57 % 1009,6 hPa 0,0 l/m 2,1 km/h (1 Bft)
03.03.2009 16:00 17,1 C 11,0 C 43 % 55 % 1008,4 hPa 0,0 l/m 2,4 km/h (1 Bft)
03.03.2009 17:00 17,1 C 10,3 C 43 % 54 % 1007,7 hPa 0,0 l/m 0,8 km/h (0 Bft)
03.03.2009 18:00 17,2 C 9,5 C 43 % 56 % 1006,8 hPa 0,0 l/m 0,1 km/h (0 Bft)
03.03.2009 19:00 17,3 C 8,2 C 42 % 58 % 1006,2 hPa 0,0 l/m 0,6 km/h (0 Bft)
03.03.2009 20:00 17,3 C 7,2 C 41 % 60 % 1005,4 hPa 0,0 l/m 0,3 km/h (0 Bft)
03.03.2009 21:00 17,3 C 6,3 C 42 % 64 % 1004,2 hPa 0,0 l/m 0,4 km/h (0 Bft)
03.03.2009 22:00 17,3 C 6,1 C 42 % 64 % 1003,1 hPa 0,0 l/m 1,4 km/h (1 Bft)
03.03.2009 23:00 17,6 C 5,7 C 41 % 64 % 1002,0 hPa 0,0 l/m 0,8 km/h (0 Bft)
04.03.2009 00:00 17,4 C 5,1 C 41 % 66 % 1000,9 hPa 0,0 l/m 0,9 km/h (0 Bft)
04.03.2009 01:00 17,3 C 4,6 C 41 % 68 % 1000,0 hPa 0,0 l/m 0,4 km/h (0 Bft)
04.03.2009 02:00 17,3 C 4,4 C 41 % 70 % 998,6 hPa 0,0 l/m 1,8 km/h (1 Bft)
04.03.2009 03:00 17,2 C 4,2 C 41 % 71 % 997,1 hPa 0,0 l/m 0,1 km/h (0 Bft)
04.03.2009 04:00 17,2 C 4,1 C 41 % 72 % 995,7 hPa 0,0 l/m 1,7 km/h (1 Bft)
04.03.2009 05:00 17,1 C 4,3 C 41 % 73 % 994,4 hPa 0,0 l/m 1,9 km/h (1 Bft)
04.03.2009 06:00 17,1 C 4,9 C 41 % 72 % 993,2 hPa 0,0 l/m 0,8 km/h (0 Bft)
04.03.2009 07:00 17,1 C 5,1 C 42 % 72 % 992,4 hPa 0,0 l/m 0,6 km/h (0 Bft)
04.03.2009 08:00 17,1 C 5,2 C 42 % 73 % 991,7 hPa 0,0 l/m 0,5 km/h (0 Bft)
04.03.2009 09:00 17,1 C 5,5 C 42 % 72 % 990,6 hPa 0,0 l/m 1,9 km/h (1 Bft)
04.03.2009 10:00 17,1 C 6,1 C 42 % 71 % 989,7 hPa 0,0 l/m 1,9 km/h (1 Bft)
04.03.2009 11:00 17,1 C 7,0 C 42 % 69 % 988,4 hPa 0,0 l/m 1,1 km/h (1 Bft)
04.03.2009 12:00 17,0 C 8,4 C 42 % 67 % 987,5 hPa 0,0 l/m 1,5 km/h (1 Bft)
04.03.2009 13:00 17,0 C 9,1 C 42 % 63 % 987,4 hPa 0,0 l/m 3,3 km/h (1 Bft)
04.03.2009 14:00 17,0 C 7,7 C 43 % 72 % 987,3 hPa 0,5 l/m 1,9 km/h (1 Bft)
04.03.2009 15:00 17,2 C 7,8 C 43 % 75 % 986,6 hPa 0,0 l/m 2,6 km/h (1 Bft)
04.03.2009 16:00 17,2 C 8,4 C 43 % 72 % 986,1 hPa 0,0 l/m 4,5 km/h (1 Bft)
04.03.2009 17:00 17,1 C 8,3 C 43 % 72 % 986,2 hPa 0,0 l/m 6,1 km/h (2 Bft)
04.03.2009 18:00 17,2 C 7,9 C 43 % 72 % 986,1 hPa 0,0 l/m 0,7 km/h (0 Bft)
04.03.2009 19:00 17,3 C 7,8 C 43 % 73 % 986,1 hPa 0,0 l/m 0,4 km/h (0 Bft)
04.03.2009 20:00 17,5 C 7,7 C 44 % 74 % 985,9 hPa 0,0 l/m 0,3 km/h (0 Bft)
04.03.2009 21:00 17,8 C 7,6 C 44 % 75 % 986,3 hPa 0,0 l/m 0,0 km/h (0 Bft)
04.03.2009 22:00 17,6 C 7,0 C 44 % 77 % 986,3 hPa 0,5 l/m 0,0 km/h (0 Bft)
04.03.2009 23:00 17,6 C 6,5 C 44 % 79 % 986,3 hPa 0,5 l/m 0,0 km/h (0 Bft)
05.03.2009 00:00 17,4 C 6,1 C 45 % 81 % 986,3 hPa 0,0 l/m 0,0 km/h (0 Bft)
05.03.2009 01:00 17,3 C 5,7 C 46 % 82 % 986,3 hPa 0,0 l/m 0,0 km/h (0 Bft)
05.03.2009 02:00 17,2 C 5,3 C 46 % 83 % 986,3 hPa 0,0 l/m 0,0 km/h (0 Bft)
05.03.2009 03:00 17,2 C 4,9 C 46 % 84 % 986,4 hPa 0,0 l/m 0,0 km/h (0 Bft)
05.03.2009 04:00 17,1 C 4,8 C 46 % 85 % 986,4 hPa 0,0 l/m 0,0 km/h (0 Bft)
05.03.2009 05:00 17,1 C 4,6 C 46 % 86 % 986,9 hPa 0,0 l/m 0,0 km/h (0 Bft)
05.03.2009 06:00 17,2 C 4,4 C 46 % 86 % 987,4 hPa 0,0 l/m 0,0 km/h (0 Bft)
05.03.2009 07:00 17,2 C 4,3 C 46 % 86 % 987,6 hPa 1,0 l/m 0,0 km/h (0 Bft)
05.03.2009 08:00 17,1 C 4,2 C 46 % 87 % 988,4 hPa 1,0 l/m 0,0 km/h (0 Bft)
05.03.2009 09:00 17,1 C 4,3 C 46 % 88 % 988,4 hPa 0,5 l/m 0,1 km/h (0 Bft)
05.03.2009 10:00 17,1 C 4,5 C 46 % 88 % 988,4 hPa 0,5 l/m 0,3 km/h (0 Bft)
05.03.2009 11:00 16,9 C 4,9 C 45 % 87 % 988,4 hPa 0,5 l/m 0,2 km/h (0 Bft)
05.03.2009 12:00 16,5 C 5,2 C 46 % 87 % 988,4 hPa 0,0 l/m 0,1 km/h (0 Bft)
05.03.2009 13:00 16,6 C 5,4 C 46 % 87 % 988,7 hPa 1,0 l/m 0,1 km/h (0 Bft)
05.03.2009 14:00 16,6 C 5,5 C 46 % 87 % 989,4 hPa 0,5 l/m 0,1 km/h (0 Bft)
05.03.2009 15:00 16,6 C 5,4 C 46 % 87 % 989,6 hPa 0,5 l/m 0,9 km/h (0 Bft)
05.03.2009 16:00 16,8 C 5,3 C 46 % 87 % 990,3 hPa 1,6 l/m 0,4 km/h (0 Bft)
05.03.2009 17:00 16,8 C 5,0 C 46 % 88 % 990,4 hPa 0,5 l/m 0,4 km/h (0 Bft)
05.03.2009 18:00 16,6 C 4,8 C 46 % 88 % 990,4 hPa 1,0 l/m 2,1 km/h (1 Bft)
05.03.2009 19:00 16,1 C 4,5 C 46 % 88 % 991,4 hPa 0,0 l/m 1,0 km/h (0 Bft)
05.03.2009 20:00 16,2 C 4,4 C 47 % 88 % 992,1 hPa 1,6 l/m 1,1 km/h (0 Bft)
05.03.2009 21:00 16,5 C 4,3 C 49 % 88 % 992,4 hPa 0,5 l/m 1,9 km/h (1 Bft)
05.03.2009 22:00 16,6 C 4,2 C 49 % 88 % 992,4 hPa 0,5 l/m 2,7 km/h (1 Bft)
05.03.2009 23:00 16,6 C 4,1 C 48 % 88 % 992,4 hPa 1,0 l/m 1,4 km/h (1 Bft)
06.03.2009 00:00 16,7 C 4,2 C 48 % 89 % 992,6 hPa 0,5 l/m 1,7 km/h (1 Bft)
06.03.2009 01:00 16,7 C 4,3 C 48 % 89 % 993,4 hPa 0,5 l/m 1,5 km/h (1 Bft)
06.03.2009 02:00 16,7 C 4,4 C 48 % 89 % 993,4 hPa 0,5 l/m 2,9 km/h (1 Bft)
06.03.2009 03:00 16,7 C 4,4 C 48 % 89 % 993,4 hPa 0,5 l/m 2,6 km/h (1 Bft)
06.03.2009 04:00 16,7 C 4,5 C 48 % 90 % 993,9 hPa 1,0 l/m 1,0 km/h (0 Bft)
06.03.2009 05:00 16,8 C 4,5 C 48 % 90 % 994,4 hPa 0,5 l/m 2,5 km/h (1 Bft)
06.03.2009 06:00 16,8 C 4,6 C 48 % 90 % 994,8 hPa 1,0 l/m 2,1 km/h (1 Bft)
06.03.2009 07:00 16,8 C 4,6 C 47 % 90 % 995,8 hPa 0,5 l/m 2,3 km/h (1 Bft)
06.03.2009 08:00 16,8 C 4,6 C 47 % 89 % 996,4 hPa 1,0 l/m 2,0 km/h (1 Bft)
06.03.2009 09:00 16,8 C 4,7 C 47 % 89 % 997,4 hPa 0,5 l/m 3,0 km/h (1 Bft)
06.03.2009 10:00 16,8 C 4,9 C 47 % 90 % 998,1 hPa 1,0 l/m 3,5 km/h (1 Bft)
06.03.2009 11:00 16,8 C 5,1 C 47 % 90 % 998,4 hPa 0,5 l/m 3,7 km/h (1 Bft)
06.03.2009 12:00 16,8 C 5,2 C 47 % 89 % 998,5 hPa 0,5 l/m 5,7 km/h (1 Bft)
06.03.2009 13:00 16,8 C 5,3 C 47 % 89 % 999,4 hPa 0,5 l/m 4,3 km/h (1 Bft)
06.03.2009 14:00 16,9 C 5,2 C 47 % 88 % 999,7 hPa 0,0 l/m 6,2 km/h (2 Bft)
06.03.2009 15:00 16,9 C 5,2 C 47 % 88 % 1000,4 hPa 0,5 l/m 7,0 km/h (2 Bft)
06.03.2009 16:00 16,9 C 5,0 C 47 % 88 % 1001,0 hPa 0,0 l/m 2,5 km/h (1 Bft)
06.03.2009 17:00 16,9 C 5,0 C 47 % 86 % 1001,9 hPa 0,0 l/m 2,3 km/h (1 Bft)
06.03.2009 18:00 17,0 C 5,3 C 49 % 82 % 1002,7 hPa 0,0 l/m 6,2 km/h (2 Bft)
06.03.2009 19:00 17,1 C 5,2 C 51 % 81 % 1003,5 hPa 0,0 l/m 2,3 km/h (1 Bft)
06.03.2009 20:00 17,1 C 4,9 C 49 % 80 % 1004,4 hPa 0,0 l/m 3,5 km/h (1 Bft)
06.03.2009 21:00 17,0 C 4,3 C 47 % 79 % 1005,0 hPa 0,0 l/m 2,3 km/h (1 Bft)
06.03.2009 22:00 17,0 C 3,8 C 47 % 80 % 1005,8 hPa 0,0 l/m 3,5 km/h (1 Bft)
06.03.2009 23:00 16,9 C 3,2 C 46 % 81 % 1006,5 hPa 0,0 l/m 2,1 km/h (1 Bft)
07.03.2009 00:00 16,9 C 2,5 C 46 % 83 % 1007,2 hPa 0,0 l/m 2,1 km/h (1 Bft)
07.03.2009 01:00 16,8 C 2,0 C 45 % 85 % 1008,3 hPa 0,0 l/m 1,1 km/h (1 Bft)
07.03.2009 02:00 16,8 C 1,5 C 45 % 85 % 1008,5 hPa 0,0 l/m 0,2 km/h (0 Bft)
07.03.2009 03:00 16,8 C 0,8 C 44 % 86 % 1008,5 hPa 0,0 l/m 0,1 km/h (0 Bft)
07.03.2009 04:00 16,7 C 0,9 C 44 % 87 % 1009,1 hPa 0,0 l/m 0,8 km/h (0 Bft)
07.03.2009 05:00 16,7 C 1,1 C 44 % 88 % 1009,5 hPa 0,0 l/m 0,0 km/h (0 Bft)
07.03.2009 06:00 16,6 C 0,5 C 44 % 88 % 1010,4 hPa 0,0 l/m 0,1 km/h (0 Bft)
07.03.2009 07:00 16,6 C 0,3 C 44 % 89 % 1010,7 hPa 0,0 l/m 0,0 km/h (0 Bft)
07.03.2009 08:00 16,6 C 0,3 C 44 % 89 % 1011,5 hPa 0,0 l/m 0,0 km/h (0 Bft)
07.03.2009 09:00 16,5 C 1,2 C 44 % 89 % 1011,8 hPa 0,0 l/m 0,0 km/h (0 Bft)
07.03.2009 10:00 16,5 C 2,8 C 44 % 89 % 1012,5 hPa 0,0 l/m 0,1 km/h (0 Bft)
07.03.2009 11:00 16,4 C 4,0 C 44 % 89 % 1012,5 hPa 0,0 l/m 0,6 km/h (0 Bft)
07.03.2009 12:00 16,4 C 5,3 C 45 % 87 % 1012,5 hPa 0,0 l/m 1,1 km/h (1 Bft)
07.03.2009 13:00 16,5 C 7,5 C 45 % 82 % 1012,4 hPa 0,0 l/m 2,0 km/h (1 Bft)
07.03.2009 14:00 16,5 C 8,4 C 45 % 77 % 1012,4 hPa 0,0 l/m 1,7 km/h (1 Bft)
07.03.2009 15:00 16,7 C 8,9 C 45 % 74 % 1012,4 hPa 0,0 l/m 1,4 km/h (1 Bft)
07.03.2009 16:00 16,8 C 9,1 C 45 % 71 % 1012,3 hPa 0,0 l/m 0,4 km/h (0 Bft)
07.03.2009 17:00 16,8 C 8,7 C 45 % 72 % 1011,4 hPa 0,0 l/m 0,0 km/h (0 Bft)
07.03.2009 18:00 16,8 C 8,4 C 45 % 73 % 1011,6 hPa 0,0 l/m 0,0 km/h (0 Bft)
07.03.2009 19:00 17,0 C 8,2 C 45 % 73 % 1011,7 hPa 0,0 l/m 0,4 km/h (0 Bft)
07.03.2009 20:00 17,1 C 8,1 C 45 % 75 % 1011,9 hPa 0,0 l/m 1,1 km/h (1 Bft)
07.03.2009 21:00 17,1 C 8,0 C 46 % 76 % 1011,4 hPa 0,0 l/m 0,2 km/h (0 Bft)
07.03.2009 22:00 17,1 C 7,8 C 46 % 76 % 1010,8 hPa 0,0 l/m 0,8 km/h (0 Bft)
07.03.2009 23:00 17,1 C 7,6 C 46 % 77 % 1010,5 hPa 0,0 l/m 0,1 km/h (0 Bft)
08.03.2009 00:00 17,0 C 7,6 C 46 % 77 % 1010,1 hPa 0,0 l/m 0,9 km/h (0 Bft)
08.03.2009 01:00 17,0 C 7,8 C 46 % 76 % 1009,2 hPa 0,0 l/m 1,3 km/h (1 Bft)
08.03.2009 02:00 16,9 C 7,5 C 45 % 77 % 1008,4 hPa 0,0 l/m 1,6 km/h (1 Bft)
08.03.2009 03:00 16,9 C 7,3 C 46 % 79 % 1007,6 hPa 0,0 l/m 0,5 km/h (0 Bft)
08.03.2009 04:00 16,9 C 7,4 C 46 % 82 % 1006,4 hPa 0,0 l/m 2,5 km/h (1 Bft)
08.03.2009 05:00 16,9 C 7,7 C 46 % 82 % 1005,5 hPa 0,0 l/m 2,6 km/h (1 Bft)
08.03.2009 06:00 17,0 C 8,2 C 47 % 82 % 1005,2 hPa 0,0 l/m 5,6 km/h (1 Bft)
08.03.2009 07:00 17,2 C 8,4 C 47 % 81 % 1004,6 hPa 0,0 l/m 3,5 km/h (1 Bft)
08.03.2009 08:00 17,2 C 8,8 C 47 % 81 % 1004,3 hPa 0,0 l/m 3,6 km/h (1 Bft)
08.03.2009 09:00 17,2 C 8,8 C 48 % 83 % 1003,4 hPa 0,5 l/m 4,6 km/h (1 Bft)
08.03.2009 10:00 17,1 C 8,6 C 50 % 86 % 1003,4 hPa 1,6 l/m 10,9 km/h (2 Bft)
08.03.2009 11:00 17,1 C 8,7 C 51 % 87 % 1004,1 hPa 1,0 l/m 6,6 km/h (2 Bft)
08.03.2009 12:00 17,1 C 9,4 C 51 % 87 % 1003,5 hPa 0,0 l/m 3,7 km/h (1 Bft)
08.03.2009 13:00 17,1 C 10,2 C 51 % 81 % 1003,3 hPa 0,0 l/m 8,6 km/h (2 Bft)
08.03.2009 14:00 17,2 C 10,1 C 51 % 71 % 1003,3 hPa 0,0 l/m 6,9 km/h (2 Bft)
08.03.2009 15:00 17,6 C 10,6 C 49 % 67 % 1002,9 hPa 0,0 l/m 4,3 km/h (1 Bft)
08.03.2009 16:00 17,6 C 10,4 C 49 % 65 % 1002,3 hPa 0,0 l/m 3,9 km/h (1 Bft)
08.03.2009 17:00 17,6 C 9,9 C 48 % 65 % 1002,3 hPa 0,0 l/m 0,6 km/h (0 Bft)
08.03.2009 18:00 17,6 C 8,9 C 47 % 66 % 1002,4 hPa 0,0 l/m 0,0 km/h (0 Bft)
08.03.2009 19:00 17,6 C 7,8 C 47 % 62 % 1002,4 hPa 0,0 l/m 1,3 km/h (1 Bft)
08.03.2009 20:00 17,6 C 7,2 C 46 % 62 % 1002,4 hPa 0,0 l/m 3,4 km/h (1 Bft)
08.03.2009 21:00 17,6 C 6,7 C 45 % 64 % 1001,5 hPa 0,0 l/m 5,5 km/h (1 Bft)
08.03.2009 22:00 17,5 C 6,6 C 44 % 67 % 1002,0 hPa 0,0 l/m 11,9 km/h (2 Bft)
08.03.2009 23:00 17,5 C 5,7 C 44 % 72 % 1002,4 hPa 0,0 l/m 4,6 km/h (1 Bft)
Min-Datum _ 03.03.09 07.03.09 03.03.09 03.03.09 04.03.09 - 02.03.09
_ Min-Zeit 09:54 07:52 20:20 17:02 16:36 - 00:00
Minimum _ 15,6 C 0,1 C 41 % 54 % 985,3 hPa - 0,0 km/h (0 Bft)
Max-Datum _ 02.03.09 03.03.09 02.03.09 06.03.09 03.03.09 05.03.09 03.03.09
_ Max-Zeit 00:00 14:30 03:00 03:32 01:00 16:06 14:54
Maximum _ 18,0 C 11,6 C 52 % 90 % 1017,6 hPa 1,6 l/m 33,9 km/h
N-NW (5 Bft)
Durchschnitt _ 17,0 C 6,0 C 46 % 79 % 1002,6 hPa #27,5 l/m 1,7 km/h (1 Bft)
© 2012 W. Hausmann